createdAt,value
2022-12-05T00:01:28.729Z,67.13
2022-12-05T00:03:59.295Z,61.63
2022-12-05T00:06:29.709Z,61.53
2022-12-05T00:08:58.511Z,66.53
2022-12-05T00:11:30.348Z,65.03
2022-12-05T00:14:00.804Z,65.57
2022-12-05T00:16:31.661Z,69.93
2022-12-05T00:19:00.714Z,66.33
2022-12-05T00:21:31.559Z,61.83
2022-12-05T00:24:01.269Z,61.20
2022-12-05T00:26:32.640Z,67.30
2022-12-05T00:29:01.219Z,62.60
2022-12-05T00:31:29.569Z,63.13
2022-12-05T00:34:00.713Z,65.43
2022-12-05T00:36:30.627Z,62.80
2022-12-05T00:39:00.598Z,69.47
2022-12-05T00:41:31.094Z,67.20
2022-12-05T00:44:01.111Z,63.67
2022-12-05T00:46:31.660Z,73.63
2022-12-05T00:49:01.446Z,67.40
2022-12-05T00:51:31.013Z,74.83
2022-12-05T00:54:00.327Z,64.03
2022-12-05T00:56:31.404Z,62.83
2022-12-05T00:59:00.817Z,70.33
2022-12-05T01:01:32.586Z,65.03
2022-12-05T01:04:02.688Z,67.03
2022-12-05T01:06:30.836Z,68.50
2022-12-05T01:08:59.606Z,68.27
2022-12-05T01:11:28.583Z,64.00
2022-12-05T01:13:58.842Z,68.60
2022-12-05T01:16:29.352Z,64.00
2022-12-05T01:18:59.117Z,65.20
2022-12-05T01:21:27.287Z,63.67
2022-12-05T01:23:55.479Z,64.00
2022-12-05T01:26:24.405Z,69.23
2022-12-05T01:28:53.101Z,67.53
2022-12-05T01:31:25.515Z,73.73
2022-12-05T01:33:55.703Z,68.97
2022-12-05T01:36:24.697Z,64.03
2022-12-05T01:38:53.284Z,67.63
2022-12-05T01:41:23.430Z,68.97
2022-12-05T01:43:56.381Z,64.73
2022-12-05T01:46:26.795Z,66.53
2022-12-05T01:49:00.872Z,64.90
2022-12-05T01:51:29.192Z,67.80
2022-12-05T01:53:57.411Z,65.33
2022-12-05T01:56:25.564Z,66.30
2022-12-05T01:58:54.849Z,64.20
2022-12-05T02:01:23.117Z,68.57
2022-12-05T02:03:56.341Z,63.37
2022-12-05T02:06:24.736Z,54.53
2022-12-05T02:08:53.460Z,60.70
2022-12-05T02:11:22.883Z,59.20
2022-12-05T02:14:08.580Z,60.43
2022-12-05T02:16:48.932Z,66.73
2022-12-05T02:19:48.383Z,60.63
2022-12-05T02:22:43.876Z,56.20
2022-12-05T02:25:27.837Z,65.40
2022-12-05T02:28:40.642Z,58.50
2022-12-05T02:31:16.376Z,59.80
2022-12-05T02:33:48.685Z,54.67
2022-12-05T02:36:23.033Z,60.67
2022-12-05T02:38:59.724Z,54.50
2022-12-05T02:41:33.545Z,57.87
2022-12-05T02:44:06.255Z,55.00
2022-12-05T02:46:39.051Z,56.17
2022-12-05T02:49:10.435Z,56.00
2022-12-05T02:51:43.330Z,58.27
2022-12-05T02:54:15.076Z,55.10
2022-12-05T02:56:45.870Z,56.13
2022-12-05T02:59:18.511Z,57.60
2022-12-05T03:01:51.350Z,54.50
2022-12-05T03:04:22.395Z,56.43
2022-12-05T03:06:53.884Z,51.53
2022-12-05T03:09:26.057Z,56.90
2022-12-05T03:11:57.125Z,52.93
2022-12-05T03:14:28.038Z,53.27
2022-12-05T03:17:01.762Z,53.97
2022-12-05T03:19:36.481Z,50.30
2022-12-05T03:22:09.954Z,57.00
2022-12-05T03:24:40.579Z,56.67
2022-12-05T03:27:14.091Z,55.87
2022-12-05T03:29:51.135Z,46.50
2022-12-05T03:32:25.537Z,53.57
2022-12-05T03:35:02.309Z,45.90
2022-12-05T03:37:40.991Z,54.83
2022-12-05T03:40:15.860Z,49.83
2022-12-05T03:42:53.099Z,51.67
2022-12-05T03:45:26.323Z,50.27
2022-12-05T03:48:01.903Z,49.33
2022-12-05T03:50:31.185Z,48.77
2022-12-05T03:55:55.749Z,52.30
2022-12-05T03:58:30.902Z,51.77
2022-12-05T04:01:02.225Z,51.50
2022-12-05T04:03:40.320Z,46.63
2022-12-05T04:06:15.102Z,48.37
2022-12-05T04:08:49.021Z,44.37
2022-12-05T04:11:20.991Z,42.93
2022-12-05T04:13:53.075Z,44.50
2022-12-05T04:16:42.485Z,46.37
2022-12-05T04:19:18.777Z,46.30
2022-12-05T04:21:50.468Z,45.47
2022-12-05T04:24:38.268Z,40.93
2022-12-05T04:27:13.768Z,42.80
2022-12-05T04:29:49.462Z,35.57
2022-12-05T04:32:19.851Z,39.93
2022-12-05T04:34:57.570Z,41.23
2022-12-05T04:37:27.310Z,39.57
2022-12-05T04:40:00.617Z,40.73
2022-12-05T04:42:32.218Z,46.13
2022-12-05T04:45:05.234Z,39.00
2022-12-05T04:47:40.686Z,37.67
2022-12-05T04:50:12.921Z,40.07
2022-12-05T04:52:42.682Z,37.80
2022-12-05T04:55:13.569Z,40.00
2022-12-05T04:57:56.395Z,44.47
2022-12-05T05:00:24.528Z,40.13
2022-12-05T05:02:57.112Z,39.63
2022-12-05T05:05:28.312Z,39.27
2022-12-05T05:07:56.843Z,37.87
2022-12-05T05:10:32.180Z,37.93
2022-12-05T05:13:00.170Z,37.47
2022-12-05T05:15:28.238Z,41.30
2022-12-05T05:17:56.215Z,43.20
2022-12-05T05:20:27.518Z,38.50
2022-12-05T05:22:58.671Z,37.60
2022-12-05T05:25:27.118Z,36.63
2022-12-05T05:27:56.992Z,40.77
2022-12-05T05:30:26.242Z,42.60
2022-12-05T05:32:54.620Z,36.70
2022-12-05T05:35:22.696Z,36.43
2022-12-05T05:37:50.712Z,37.93
2022-12-05T05:40:20.265Z,41.23
2022-12-05T05:42:50.600Z,38.93
2022-12-05T05:45:19.110Z,39.40
2022-12-05T05:47:49.451Z,39.40
2022-12-05T05:50:21.694Z,35.70
2022-12-05T05:52:50.076Z,38.80
2022-12-05T05:55:19.783Z,39.80
2022-12-05T05:57:48.071Z,38.87
2022-12-05T06:00:17.159Z,43.47
2022-12-05T06:02:45.277Z,37.83
2022-12-05T06:05:13.470Z,35.07
2022-12-05T06:07:41.556Z,39.33
2022-12-05T06:10:10.517Z,42.10
2022-12-05T06:12:39.924Z,39.70
2022-12-05T06:15:09.281Z,44.10
2022-12-05T06:17:37.270Z,45.23
2022-12-05T06:20:06.053Z,33.53
2022-12-05T06:22:34.595Z,33.60
2022-12-05T06:25:02.560Z,31.70
2022-12-05T06:27:31.577Z,36.13
2022-12-05T06:30:01.315Z,38.10
2022-12-05T06:32:29.886Z,38.03
2022-12-05T06:34:58.244Z,34.77
2022-12-05T06:37:26.294Z,37.93
2022-12-05T06:39:54.286Z,32.67
2022-12-05T06:42:23.018Z,32.67
2022-12-05T06:44:51.033Z,37.13
2022-12-05T06:47:20.410Z,41.13
2022-12-05T06:49:48.507Z,34.37
2022-12-05T06:52:16.526Z,45.40
2022-12-05T06:54:44.508Z,40.70
2022-12-05T06:57:12.466Z,34.93
2022-12-05T06:59:40.520Z,35.83
2022-12-05T07:02:08.539Z,35.03
2022-12-05T07:04:38.035Z,38.53
2022-12-05T07:07:06.240Z,35.10
2022-12-05T07:09:52.323Z,37.00
2022-12-05T07:12:20.907Z,35.37
2022-12-05T07:14:49.872Z,38.20
2022-12-05T07:17:18.576Z,38.77
2022-12-05T07:19:48.946Z,35.40
2022-12-05T07:22:17.463Z,43.07
2022-12-05T07:24:45.773Z,37.23
2022-12-05T07:27:14.129Z,34.70
2022-12-05T07:29:42.224Z,38.70
2022-12-05T07:32:10.549Z,36.77
2022-12-05T07:34:39.581Z,36.40
2022-12-05T07:37:08.992Z,37.47
2022-12-05T07:39:37.024Z,31.70
2022-12-05T07:42:05.216Z,33.27
2022-12-05T07:44:33.358Z,32.43
2022-12-05T07:47:01.336Z,39.17
2022-12-05T07:49:29.501Z,38.73
2022-12-05T07:51:58.375Z,39.37
2022-12-05T07:54:27.717Z,39.77
2022-12-05T07:56:55.689Z,40.30
2022-12-05T07:59:23.685Z,45.80
2022-12-05T08:01:52.065Z,42.97
2022-12-05T08:04:20.102Z,42.43
2022-12-05T08:06:48.169Z,46.77
2022-12-05T08:09:16.158Z,44.90
2022-12-05T08:11:51.014Z,42.03
2022-12-05T08:14:20.825Z,40.87
2022-12-05T08:16:48.939Z,50.37
2022-12-05T08:19:17.877Z,47.33
2022-12-05T08:21:45.937Z,46.97
2022-12-05T08:24:14.479Z,49.50
2022-12-05T08:26:42.965Z,48.33
2022-12-05T08:29:14.679Z,51.77
2022-12-05T08:31:44.243Z,49.40
2022-12-05T08:34:14.095Z,55.50
2022-12-05T08:36:42.757Z,45.57
2022-12-05T08:39:14.953Z,52.83
2022-12-05T08:41:43.439Z,55.03
2022-12-05T08:44:16.336Z,54.97
2022-12-05T08:46:46.208Z,56.10
2022-12-05T08:49:15.036Z,52.67
2022-12-05T08:51:44.092Z,59.13
2022-12-05T08:54:12.466Z,55.97
2022-12-05T08:56:52.197Z,66.50
2022-12-05T08:59:21.622Z,57.90
2022-12-05T09:01:51.693Z,62.83
2022-12-05T09:04:19.723Z,58.00
2022-12-05T09:06:47.695Z,60.00
2022-12-05T09:09:15.834Z,65.77
2022-12-05T09:11:48.876Z,61.80
2022-12-05T09:14:17.325Z,60.37
2022-12-05T09:16:48.144Z,62.07
2022-12-05T09:19:20.261Z,63.57
2022-12-05T09:21:48.310Z,63.33
2022-12-05T09:24:16.304Z,54.10
2022-12-05T09:26:45.477Z,57.80
2022-12-05T09:29:17.217Z,70.77
2022-12-05T09:31:49.892Z,60.90
2022-12-05T09:34:20.050Z,69.33
2022-12-05T09:36:55.637Z,66.87
2022-12-05T09:39:26.544Z,65.03
2022-12-05T09:42:08.893Z,71.53
2022-12-05T09:45:05.851Z,63.63
2022-12-05T09:47:46.994Z,73.53
2022-12-05T09:50:20.022Z,73.73
2022-12-05T09:53:05.011Z,75.73
2022-12-05T09:55:39.502Z,76.57
2022-12-05T09:58:20.723Z,76.23
2022-12-05T10:00:50.909Z,86.07
2022-12-05T10:03:29.939Z,72.20
2022-12-05T10:06:08.711Z,83.67
2022-12-05T10:08:48.722Z,77.13
2022-12-05T10:11:26.710Z,95.30
2022-12-05T10:13:59.875Z,82.07
2022-12-05T10:16:34.932Z,78.00
2022-12-05T10:19:12.057Z,78.83
2022-12-05T10:21:46.995Z,77.10
2022-12-05T10:24:19.713Z,80.63
2022-12-05T10:26:55.097Z,85.50
2022-12-05T10:29:28.979Z,78.67
2022-12-05T10:32:05.227Z,77.97
2022-12-05T10:34:39.690Z,85.27
2022-12-05T10:37:15.317Z,72.33
2022-12-05T10:39:43.628Z,78.00
2022-12-05T10:42:17.369Z,75.93
2022-12-05T10:44:46.233Z,79.03
2022-12-05T10:47:15.220Z,77.53
2022-12-05T10:49:44.834Z,78.10
2022-12-05T10:52:15.261Z,80.03
2022-12-05T10:54:48.352Z,84.33
2022-12-05T10:57:24.798Z,76.07
2022-12-05T10:59:53.352Z,74.07
2022-12-05T11:02:27.123Z,75.03
2022-12-05T11:04:58.525Z,75.30
2022-12-05T11:07:31.924Z,79.53
2022-12-05T11:10:01.442Z,85.90
2022-12-05T11:12:37.346Z,87.93
2022-12-05T11:15:21.664Z,74.87
2022-12-05T11:17:51.369Z,85.43
2022-12-05T11:20:39.487Z,72.23
2022-12-05T11:23:28.453Z,74.57
2022-12-05T11:25:57.321Z,80.07
2022-12-05T11:28:37.045Z,73.53
2022-12-05T11:31:08.929Z,86.20
2022-12-05T11:33:37.705Z,77.37
2022-12-05T11:36:15.767Z,80.90
2022-12-05T11:38:44.066Z,85.83
2022-12-05T11:41:26.575Z,74.30
2022-12-05T11:44:13.447Z,81.60
2022-12-05T11:46:53.728Z,78.17
2022-12-05T11:49:46.225Z,82.80
2022-12-05T11:52:26.137Z,79.20
2022-12-05T11:55:05.644Z,70.90
2022-12-05T11:57:52.748Z,78.47
2022-12-05T12:00:25.911Z,74.83
2022-12-05T12:03:21.175Z,76.97
2022-12-05T12:06:00.216Z,84.57
2022-12-05T12:08:31.515Z,79.80
2022-12-05T12:11:09.977Z,78.27
2022-12-05T12:13:52.803Z,71.57
2022-12-05T12:16:29.327Z,83.90
2022-12-05T12:19:15.336Z,71.23
2022-12-05T12:21:57.707Z,80.10
2022-12-05T12:24:38.368Z,77.27
2022-12-05T12:27:16.943Z,81.97
2022-12-05T12:29:59.536Z,76.77
2022-12-05T12:32:36.265Z,70.10
2022-12-05T12:35:24.910Z,70.67
2022-12-05T12:38:24.393Z,89.10
2022-12-05T12:40:58.131Z,74.70
2022-12-05T12:43:53.608Z,76.10
2022-12-05T12:46:32.025Z,75.27
2022-12-05T12:49:15.514Z,73.10
2022-12-05T12:51:52.696Z,79.20
2022-12-05T12:57:47.111Z,71.73
2022-12-05T13:00:24.894Z,78.70
2022-12-05T13:03:00.323Z,81.50
2022-12-05T13:05:34.507Z,75.20
2022-12-05T13:08:07.360Z,80.07
2022-12-05T13:10:39.562Z,74.67
2022-12-05T13:13:12.153Z,74.13
2022-12-05T13:15:44.568Z,72.13
2022-12-05T13:18:17.285Z,71.60
2022-12-05T13:20:47.173Z,79.47
2022-12-05T13:23:19.317Z,72.17
2022-12-05T13:25:48.388Z,71.57
2022-12-05T13:28:28.603Z,79.30
2022-12-05T13:31:02.758Z,76.43
2022-12-05T13:33:36.715Z,67.07
2022-12-05T13:36:27.130Z,74.37
2022-12-05T13:39:17.740Z,70.73
2022-12-05T13:42:05.073Z,72.87
2022-12-05T13:44:39.610Z,85.20
2022-12-05T13:47:10.179Z,85.00
2022-12-05T13:49:46.175Z,94.30
2022-12-05T13:52:19.343Z,76.83
2022-12-05T13:54:55.233Z,75.77
2022-12-05T13:57:47.151Z,81.53
2022-12-05T14:00:32.408Z,79.83
2022-12-05T14:03:16.878Z,82.23
2022-12-05T14:05:51.298Z,80.77
2022-12-05T14:08:58.379Z,87.53
2022-12-05T14:11:26.353Z,90.57
2022-12-05T14:13:59.108Z,85.87
2022-12-05T14:16:53.863Z,96.60
2022-12-05T14:19:53.238Z,96.20
2022-12-05T14:22:51.659Z,86.10
2022-12-05T14:25:45.516Z,79.27
2022-12-05T14:28:28.964Z,87.33
2022-12-05T14:31:13.806Z,87.47
2022-12-05T14:33:43.253Z,84.57
2022-12-05T14:36:18.606Z,87.40
2022-12-05T14:38:46.618Z,87.10
2022-12-05T14:41:18.353Z,82.80
2022-12-05T14:43:53.454Z,89.90
2022-12-05T14:46:26.845Z,85.73
2022-12-05T14:48:59.381Z,90.77
2022-12-05T14:51:46.951Z,84.17
2022-12-05T14:54:17.663Z,83.10
2022-12-05T14:56:48.044Z,85.73
2022-12-05T14:59:26.082Z,99.43
2022-12-05T15:01:57.977Z,93.50
2022-12-05T15:04:33.907Z,92.60
2022-12-05T15:07:05.722Z,93.40
2022-12-05T15:09:42.862Z,104.50
2022-12-05T15:12:15.893Z,109.33
2022-12-05T15:14:54.328Z,97.93
2022-12-05T15:17:26.725Z,85.63
2022-12-05T15:20:03.752Z,90.57
2022-12-05T15:22:36.540Z,80.87
2022-12-05T15:25:27.258Z,85.37
2022-12-05T15:28:06.854Z,84.57
2022-12-05T15:30:39.722Z,85.77
2022-12-05T15:33:13.629Z,80.03
2022-12-05T15:35:47.894Z,81.13
2022-12-05T15:38:26.995Z,79.97
2022-12-05T15:40:55.649Z,86.20
2022-12-05T15:43:31.861Z,85.40
2022-12-05T15:46:11.111Z,85.57
2022-12-05T15:48:39.225Z,85.57
2022-12-05T15:51:09.009Z,110.83
2022-12-05T15:53:41.423Z,192.03
2022-12-05T15:56:14.394Z,125.90
2022-12-05T15:58:45.702Z,88.13
2022-12-05T16:01:18.501Z,87.87
2022-12-05T16:03:49.655Z,77.80
2022-12-05T16:06:25.021Z,79.53
2022-12-05T16:08:53.420Z,75.43
2022-12-05T16:11:21.958Z,62.87
2022-12-05T16:13:56.065Z,56.87
2022-12-05T16:16:26.851Z,58.57
2022-12-05T16:18:56.431Z,65.97
2022-12-05T16:21:38.888Z,66.83
2022-12-05T16:24:09.548Z,65.43
2022-12-05T16:26:39.696Z,63.17
2022-12-05T16:29:09.438Z,60.73
2022-12-05T16:31:39.013Z,65.43
2022-12-05T16:34:09.501Z,59.00
2022-12-05T16:36:47.905Z,71.60
2022-12-05T16:39:19.702Z,59.30
2022-12-05T16:41:48.982Z,62.77
2022-12-05T16:45:02.149Z,61.93
2022-12-05T16:47:56.689Z,66.77
2022-12-05T16:50:31.202Z,65.40
2022-12-05T16:53:15.367Z,62.30
2022-12-05T16:55:45.664Z,60.20
2022-12-05T16:58:19.096Z,74.23
2022-12-05T17:00:47.134Z,66.50
2022-12-05T17:03:40.093Z,62.87
2022-12-05T17:06:03.723Z,59.20
2022-12-05T17:08:33.156Z,76.90
2022-12-05T17:11:02.007Z,70.43
2022-12-05T17:13:31.839Z,70.23
2022-12-05T17:15:59.907Z,64.47
2022-12-05T17:18:31.914Z,63.70
2022-12-05T17:21:03.034Z,59.23
2022-12-05T17:23:32.379Z,53.97
2022-12-05T17:26:00.898Z,53.10
2022-12-05T17:28:28.882Z,44.90
2022-12-05T17:30:57.320Z,47.80
2022-12-05T17:33:25.907Z,48.73
2022-12-05T17:35:53.901Z,47.83
2022-12-05T17:38:22.064Z,48.10
2022-12-05T17:40:51.643Z,47.80
2022-12-05T17:43:24.835Z,42.70
2022-12-05T17:45:54.823Z,41.63
2022-12-05T17:48:23.296Z,41.23
2022-12-05T17:50:51.410Z,37.23
2022-12-05T17:53:21.545Z,38.47
2022-12-05T17:55:51.437Z,42.53
2022-12-05T17:58:19.435Z,34.47
2022-12-05T18:00:48.366Z,40.67
2022-12-05T18:03:18.694Z,40.77
2022-12-05T18:05:47.282Z,42.17
2022-12-05T18:08:17.094Z,39.83
2022-12-05T18:10:46.867Z,38.80
2022-12-05T18:13:17.699Z,41.73
2022-12-05T18:15:48.235Z,39.63
2022-12-05T18:18:18.327Z,38.60
2022-12-05T18:20:46.335Z,37.70
2022-12-05T18:23:14.302Z,37.13
2022-12-05T18:25:43.024Z,35.57
2022-12-05T18:28:13.977Z,37.07
2022-12-05T18:30:44.542Z,33.97
2022-12-05T18:33:12.528Z,36.70
2022-12-05T18:35:42.989Z,35.53
2022-12-05T18:38:12.394Z,34.23
2022-12-05T18:40:40.468Z,37.77
2022-12-05T18:43:08.483Z,38.80
2022-12-05T18:45:36.511Z,36.43
2022-12-05T18:50:54.695Z,39.43
2022-12-05T18:53:22.882Z,32.53
2022-12-05T18:56:20.075Z,30.83
2022-12-05T18:58:39.369Z,35.07
2022-12-05T19:01:09.191Z,32.00
2022-12-05T19:03:40.209Z,33.90
2022-12-05T19:06:14.997Z,34.90
2022-12-05T19:08:44.407Z,33.13
2022-12-05T19:11:13.024Z,28.83
2022-12-05T19:13:41.452Z,34.97
2022-12-05T19:16:13.933Z,32.73
2022-12-05T19:18:43.491Z,31.00
2022-12-05T19:21:11.714Z,29.60
2022-12-05T19:23:40.103Z,32.77
2022-12-05T19:26:09.580Z,31.33
2022-12-05T19:28:38.667Z,34.80
2022-12-05T19:31:08.863Z,33.93
2022-12-05T19:33:39.346Z,28.00
2022-12-05T19:36:11.956Z,32.77
2022-12-05T19:38:40.808Z,29.10
2022-12-05T19:41:10.593Z,28.93
2022-12-05T19:43:39.399Z,27.97
2022-12-05T19:46:09.977Z,29.13
2022-12-05T19:48:38.201Z,31.27
2022-12-05T19:51:06.573Z,28.60
2022-12-05T19:53:37.453Z,27.23
2022-12-05T19:56:08.779Z,27.10
2022-12-05T19:58:37.511Z,27.20
2022-12-05T20:01:10.143Z,26.70
2022-12-05T20:03:38.551Z,29.70
2022-12-05T20:06:07.673Z,25.27
2022-12-05T20:08:38.374Z,28.83
2022-12-05T20:11:07.643Z,26.67
2022-12-05T20:13:52.287Z,23.47
2022-12-05T20:16:22.535Z,28.43
2022-12-05T20:18:51.407Z,27.70
2022-12-05T20:21:22.032Z,22.40
2022-12-05T20:23:51.865Z,23.60
2022-12-05T20:26:22.434Z,26.70
2022-12-05T20:28:51.279Z,22.47
2022-12-05T20:31:20.753Z,28.63
2022-12-05T20:33:50.229Z,24.50
2022-12-05T20:36:20.052Z,21.37
2022-12-05T20:38:48.803Z,23.33
2022-12-05T20:41:20.056Z,20.87
2022-12-05T20:43:49.381Z,20.13
2022-12-05T20:46:19.193Z,20.30
2022-12-05T20:48:49.136Z,25.83
2022-12-05T20:51:19.226Z,24.10
2022-12-05T20:53:47.971Z,21.03
2022-12-05T20:56:19.371Z,19.83
2022-12-05T20:58:49.248Z,20.87
2022-12-05T21:01:19.186Z,21.40
2022-12-05T21:03:49.643Z,19.57
2022-12-05T21:06:19.545Z,21.07
2022-12-05T21:08:47.551Z,19.93
2022-12-05T21:11:17.621Z,21.77
2022-12-05T21:13:46.080Z,22.60
2022-12-05T21:16:17.186Z,17.80
2022-12-05T21:18:45.602Z,22.80
2022-12-05T21:21:15.612Z,23.20
2022-12-05T21:23:44.096Z,20.10
2022-12-05T21:26:15.034Z,19.70
2022-12-05T21:28:46.205Z,20.90
2022-12-05T21:31:16.611Z,22.77
2022-12-05T21:33:48.656Z,19.20
2022-12-05T21:36:16.848Z,21.43
2022-12-05T21:38:44.854Z,22.10
2022-12-05T21:41:12.982Z,19.30
2022-12-05T21:43:41.121Z,17.63
2022-12-05T21:46:10.670Z,19.83
2022-12-05T21:48:38.835Z,19.33
2022-12-05T21:51:07.840Z,19.77
2022-12-05T21:53:36.450Z,18.87
2022-12-05T21:56:06.831Z,20.87
2022-12-05T21:58:39.318Z,19.10
2022-12-05T22:01:12.369Z,16.17
2022-12-05T22:03:40.475Z,18.73
2022-12-05T22:06:10.586Z,15.00
2022-12-05T22:08:39.497Z,17.17
2022-12-05T22:11:08.542Z,17.60
2022-12-05T22:13:36.996Z,14.60
2022-12-05T22:16:05.759Z,16.00
2022-12-05T22:18:35.765Z,17.33
2022-12-05T22:21:06.547Z,18.97
2022-12-05T22:23:35.693Z,17.33
2022-12-05T22:26:06.455Z,15.93
2022-12-05T22:28:35.079Z,16.47
2022-12-05T22:31:05.592Z,15.13
2022-12-05T22:33:36.538Z,17.70
2022-12-05T22:36:06.808Z,14.33
2022-12-05T22:38:36.218Z,17.10
2022-12-05T22:41:06.893Z,17.10
2022-12-05T22:43:36.651Z,15.70
2022-12-05T22:46:06.265Z,17.37
2022-12-05T22:48:36.014Z,16.80
2022-12-05T22:51:05.354Z,16.50
2022-12-05T22:53:33.701Z,16.03
2022-12-05T22:56:07.073Z,16.70
2022-12-05T22:58:35.387Z,14.07
2022-12-05T23:01:14.114Z,17.90
2022-12-05T23:03:44.837Z,16.90
2022-12-05T23:06:14.419Z,17.93
2022-12-05T23:08:43.634Z,16.30
2022-12-05T23:11:12.420Z,15.30
2022-12-05T23:13:40.813Z,15.87
2022-12-05T23:16:10.271Z,20.83
2022-12-05T23:18:47.565Z,17.40
2022-12-05T23:21:19.881Z,19.40
2022-12-05T23:23:48.953Z,16.30
2022-12-05T23:26:18.076Z,16.67
2022-12-05T23:28:46.160Z,16.07
2022-12-05T23:31:14.771Z,17.50
2022-12-05T23:33:43.276Z,14.90
2022-12-05T23:36:11.623Z,16.67
2022-12-05T23:38:42.462Z,19.80
2022-12-05T23:41:14.359Z,15.80
2022-12-05T23:43:43.480Z,16.73
2022-12-05T23:46:12.483Z,15.00
2022-12-05T23:48:41.045Z,17.37
2022-12-05T23:51:11.350Z,19.70
2022-12-05T23:53:42.252Z,15.83
2022-12-05T23:56:12.314Z,14.73
2022-12-05T23:58:40.921Z,17.47
